メキシコシティ の空港の天気 - METARとTAF

メキシコ・シティ国際空港 ( MMMX / MEX ) - メキシコ メキシコシティ
飛行場実況気象(Metar)
観測時間10/19 22:49 CDT (10/20 03:49 UTC)
風向・風速南東 5m/s
視程10km以上
天気現象
全天の4割程度の雲 雲底高度 610m
気温18℃
湿度64%
気圧1024hPa
METARMMMX 200349Z 13010KT 10SM SCT020 18/11 A3023 NOSIG RMK 8/500 AC CI
過去の天気等 Google飛行場航空写真 Wunderground天気予報

過去48時間のMETAR

飛行場予報(TAF)
発表時間: 10/19 18:17 CDT (10/19 23:17 UTC)
予報対象時間: 19日19時 CDT ~ 21日1時 CDT
風向・風速東南東 7m/s
視程10km以上
全天の4割程度の雲 雲底高度 610m
全天の8割程度の雲 雲底高度 2440m
19日21時 CDT ~ 20日1時 CDT に一時的に
天気現象周辺で 雨
全天の8割程度の雲 雲底高度 610m
全天の8割程度の雲 雲底高度 2440m
20日1時 CDT から
風向・風速南東 3m/s
視程10km以上
全天の4割程度の雲 雲底高度 610m
全天の8割程度の雲 雲底高度 2440m
20日6時 CDT ~ 20日10時 CDT に一時的に
視程8050m
天気現象煙霧
全天の8割程度の雲 雲底高度 610m
20日14時 CDT から
風向・風速南南東 8m/s
視程10km以上
全天の4割程度の雲 雲底高度 610m
20日16時 CDT ~ 20日17時 CDT に徐々に
全天の8割程度の雲 雲底高度 610m
全天の8割程度の雲 雲底高度 2440m
20日18時 CDT ~ 20日22時 CDT に一時的に
視程8050m
天気現象雨 周辺で 雷
全天の8割程度の積乱雲 雲底高度 610m
全天の8割程度の雲 雲底高度 2440m
TAF MMMX 192317Z 2000/2106 11014KT P6SM SCT020 BKN080 TX25/2021Z TN14/2012Z
TEMPO 2002/2006 VC RA BKN020 BKN080
FM200600 14005KT P6SM SCT020 BKN080
TEMPO 2011/2015 5SM HZ BKN020
FM201900 16015KT P6SM SCT020
BECMG 2021/2022 BKN020 BKN080
TEMPO 2023/2103 5SM RA VC TS BKN020CB BKN080